createdAt,value
2017-10-01T00:00:27.441Z,10.14
2017-10-01T00:01:07.947Z,10.08
2017-10-01T00:01:48.505Z,10.09
2017-10-01T00:02:29.019Z,10.14
2017-10-01T00:03:09.544Z,10.12
2017-10-01T00:03:50.071Z,10.11
2017-10-01T00:04:30.604Z,10.08
2017-10-01T00:05:11.128Z,10.07
2017-10-01T00:05:51.652Z,10.04
2017-10-01T00:06:32.205Z,10.04
2017-10-01T00:07:12.748Z,10.08
2017-10-01T00:07:53.289Z,10.12
2017-10-01T00:08:33.821Z,10.04
2017-10-01T00:09:14.366Z,10.05
2017-10-01T00:09:54.882Z,10.02
2017-10-01T00:10:35.425Z,10.11
2017-10-01T00:11:15.961Z,10.04
2017-10-01T00:11:56.480Z,10.08
2017-10-01T00:12:37.005Z,9.99
2017-10-01T00:13:17.569Z,10.08
2017-10-01T00:13:58.096Z,10.04
2017-10-01T00:14:38.629Z,10.11
2017-10-01T00:15:19.170Z,10.04
2017-10-01T00:15:59.683Z,10.07
2017-10-01T00:16:40.195Z,10.01
2017-10-01T00:17:20.751Z,10.05
2017-10-01T00:18:01.314Z,10.04
2017-10-01T00:18:41.845Z,10.07
2017-10-01T00:19:22.338Z,10.01
2017-10-01T00:20:02.865Z,10.02
2017-10-01T00:20:43.396Z,10.05
2017-10-01T00:21:23.929Z,10.01
2017-10-01T00:22:04.437Z,10.04
2017-10-01T00:22:44.971Z,10.01
2017-10-01T00:23:25.488Z,10.04
2017-10-01T00:24:06.044Z,10.05
2017-10-01T00:24:46.569Z,10.08
2017-10-01T00:25:27.088Z,10.04
2017-10-01T00:26:07.606Z,10.05
2017-10-01T00:26:48.148Z,10.04
2017-10-01T00:27:28.677Z,9.99
2017-10-01T00:28:09.196Z,10.01
2017-10-01T00:28:49.725Z,10.02
2017-10-01T00:29:30.257Z,10.02
2017-10-01T00:30:10.782Z,9.94
2017-10-01T00:30:51.322Z,10.05
2017-10-01T00:31:31.841Z,10.01
2017-10-01T00:32:12.353Z,9.99
2017-10-01T00:32:52.874Z,9.97
2017-10-01T00:33:33.403Z,9.99
2017-10-01T00:34:13.922Z,9.9
2017-10-01T00:34:54.442Z,9.91
2017-10-01T00:35:34.979Z,9.91
2017-10-01T00:36:15.506Z,9.97
2017-10-01T00:36:56.044Z,9.96
2017-10-01T00:37:36.576Z,9.89
2017-10-01T00:38:17.108Z,9.99
2017-10-01T00:38:57.655Z,9.86
2017-10-01T00:39:38.177Z,9.94
2017-10-01T00:40:18.695Z,9.87
2017-10-01T00:40:59.224Z,9.86
2017-10-01T00:41:39.751Z,9.9
2017-10-01T00:42:20.278Z,9.87
2017-10-01T00:43:00.821Z,9.93
2017-10-01T00:43:41.345Z,9.83
2017-10-01T00:44:21.863Z,9.87
2017-10-01T00:45:02.401Z,9.89
2017-10-01T00:45:42.937Z,9.94
2017-10-01T00:46:23.468Z,9.93
2017-10-01T00:47:03.994Z,9.9
2017-10-01T00:47:44.530Z,9.89
2017-10-01T00:48:25.056Z,9.89
2017-10-01T00:49:05.595Z,9.84
2017-10-01T00:49:46.118Z,9.9
2017-10-01T00:50:26.626Z,9.87
2017-10-01T00:51:07.148Z,9.89
2017-10-01T00:51:47.719Z,9.91
2017-10-01T00:52:28.259Z,9.87
2017-10-01T00:53:08.783Z,9.89
2017-10-01T00:53:49.317Z,9.89
2017-10-01T00:54:29.838Z,9.87
2017-10-01T00:55:10.406Z,9.87
2017-10-01T00:55:50.943Z,9.91
2017-10-01T00:56:31.449Z,9.87
2017-10-01T00:57:11.977Z,9.84
2017-10-01T00:57:52.515Z,9.9
2017-10-01T00:58:33.039Z,9.87
2017-10-01T00:59:13.566Z,9.9
2017-10-01T00:59:54.093Z,9.78
2017-10-01T01:00:34.623Z,9.89
2017-10-01T01:01:15.141Z,9.79
2017-10-01T01:01:55.662Z,9.76
2017-10-01T01:02:36.192Z,9.83
2017-10-01T01:03:16.715Z,9.83
2017-10-01T01:03:57.239Z,9.74
2017-10-01T01:04:37.769Z,9.78
2017-10-01T01:05:18.292Z,9.76
2017-10-01T01:05:58.829Z,9.86
2017-10-01T01:06:39.352Z,9.79
2017-10-01T01:07:19.877Z,9.83
2017-10-01T01:08:00.423Z,9.86
2017-10-01T01:08:40.945Z,9.71
2017-10-01T01:09:21.464Z,9.71
2017-10-01T01:10:02.000Z,9.86
2017-10-01T01:10:42.507Z,9.84
2017-10-01T01:11:23.031Z,9.79
2017-10-01T01:12:03.575Z,9.79
2017-10-01T01:12:44.139Z,9.81
2017-10-01T01:13:24.693Z,9.78
2017-10-01T01:14:05.223Z,9.78
2017-10-01T01:14:45.767Z,9.76
2017-10-01T01:15:26.303Z,9.79
2017-10-01T01:16:06.797Z,9.76
2017-10-01T01:16:47.331Z,9.76
2017-10-01T01:17:27.871Z,9.74
2017-10-01T01:18:08.396Z,9.81
2017-10-01T01:18:48.917Z,9.78
2017-10-01T01:19:29.449Z,9.76
2017-10-01T01:20:10.028Z,9.68
2017-10-01T01:20:50.551Z,9.79
2017-10-01T01:21:31.078Z,9.71
2017-10-01T01:22:11.591Z,9.68
2017-10-01T01:22:52.127Z,9.83
2017-10-01T01:23:32.653Z,9.74
2017-10-01T01:24:13.183Z,9.69
2017-10-01T01:24:53.705Z,9.61
2017-10-01T01:25:34.254Z,9.61
2017-10-01T01:26:14.766Z,9.64
2017-10-01T01:26:55.300Z,9.72
2017-10-01T01:27:35.810Z,9.66
2017-10-01T01:28:16.336Z,9.72
2017-10-01T01:28:56.858Z,9.66
2017-10-01T01:29:37.381Z,9.66
2017-10-01T01:30:17.893Z,9.65
2017-10-01T01:30:58.452Z,9.64
2017-10-01T01:31:38.969Z,9.64
2017-10-01T01:32:19.480Z,9.68
2017-10-01T01:33:00.017Z,9.65
2017-10-01T01:33:40.556Z,9.64
2017-10-01T01:34:21.050Z,9.64
2017-10-01T01:35:01.571Z,9.56
2017-10-01T01:35:42.096Z,9.6
2017-10-01T01:36:22.620Z,9.53
2017-10-01T01:37:03.158Z,9.57
2017-10-01T01:37:43.675Z,9.66
2017-10-01T01:38:24.210Z,9.54
2017-10-01T01:39:04.733Z,9.64
2017-10-01T01:39:45.258Z,9.56
2017-10-01T01:40:25.777Z,9.61
2017-10-01T01:41:06.318Z,9.57
2017-10-01T01:41:46.849Z,9.64
2017-10-01T01:42:27.384Z,9.58
2017-10-01T01:43:07.915Z,9.6
2017-10-01T01:43:48.438Z,9.54
2017-10-01T01:44:28.962Z,9.57
2017-10-01T01:45:09.501Z,9.53
2017-10-01T01:45:50.041Z,9.53
2017-10-01T01:46:30.573Z,9.53
2017-10-01T01:47:11.100Z,9.53
2017-10-01T01:47:51.639Z,9.57
2017-10-01T01:48:32.164Z,9.53
2017-10-01T01:49:12.700Z,9.53
2017-10-01T01:49:53.241Z,9.51
2017-10-01T01:50:33.794Z,9.51
2017-10-01T01:51:14.374Z,9.51
2017-10-01T01:51:54.906Z,9.53
2017-10-01T01:52:35.421Z,9.48
2017-10-01T01:53:15.945Z,9.53
2017-10-01T01:53:56.503Z,9.56
2017-10-01T01:54:37.014Z,9.48
2017-10-01T01:55:17.543Z,9.48
2017-10-01T01:55:58.077Z,9.5
2017-10-01T01:56:38.606Z,9.53
2017-10-01T01:57:19.129Z,9.51
2017-10-01T01:57:59.669Z,9.47
2017-10-01T01:58:40.198Z,9.47
2017-10-01T01:59:20.735Z,9.48
2017-10-01T02:00:01.271Z,9.48
2017-10-01T02:00:41.788Z,9.47
2017-10-01T02:01:22.323Z,9.5
2017-10-01T02:02:02.839Z,9.42
2017-10-01T02:02:43.364Z,9.48
2017-10-01T02:03:23.896Z,9.47
2017-10-01T02:04:04.430Z,9.47
2017-10-01T02:04:44.954Z,9.47
2017-10-01T02:05:25.487Z,9.5
2017-10-01T02:06:06.011Z,9.46
2017-10-01T02:06:46.538Z,9.46
2017-10-01T02:07:27.075Z,9.47
2017-10-01T02:08:07.606Z,9.5
2017-10-01T02:08:48.140Z,9.5
2017-10-01T02:09:28.671Z,9.47
2017-10-01T02:10:09.195Z,9.5
2017-10-01T02:10:49.725Z,9.4
2017-10-01T02:11:30.235Z,9.47
2017-10-01T02:12:10.782Z,9.43
2017-10-01T02:12:51.314Z,9.42
2017-10-01T02:13:31.850Z,9.39
2017-10-01T02:14:12.382Z,9.46
2017-10-01T02:14:52.950Z,9.48
2017-10-01T02:15:33.507Z,9.42
2017-10-01T02:16:14.017Z,9.4
2017-10-01T02:16:54.538Z,9.43
2017-10-01T02:17:35.066Z,9.5
2017-10-01T02:18:15.608Z,9.36
2017-10-01T02:18:56.162Z,9.39
2017-10-01T02:19:36.682Z,9.47
2017-10-01T02:20:17.234Z,9.46
2017-10-01T02:20:57.746Z,9.47
2017-10-01T02:21:38.275Z,9.38
2017-10-01T02:22:18.788Z,9.39
2017-10-01T02:22:59.309Z,9.47
2017-10-01T02:23:39.829Z,9.38
2017-10-01T02:24:20.342Z,9.43
2017-10-01T02:25:00.887Z,9.42
2017-10-01T02:25:41.408Z,9.42
2017-10-01T02:26:21.929Z,9.4
2017-10-01T02:27:02.455Z,9.42
2017-10-01T02:27:42.967Z,9.43
2017-10-01T02:28:23.487Z,9.48
2017-10-01T02:29:04.001Z,9.47
2017-10-01T02:29:44.517Z,9.51
2017-10-01T02:30:25.032Z,9.47
2017-10-01T02:31:05.551Z,9.48
2017-10-01T02:31:46.088Z,9.43
2017-10-01T02:32:26.620Z,9.43
2017-10-01T02:33:07.161Z,9.46
2017-10-01T02:33:47.692Z,9.47
2017-10-01T02:34:28.220Z,9.36
2017-10-01T02:35:08.753Z,9.47
2017-10-01T02:35:49.275Z,9.48
2017-10-01T02:36:29.799Z,9.47
2017-10-01T02:37:10.324Z,9.36
2017-10-01T02:37:50.864Z,9.47
2017-10-01T02:38:31.403Z,9.48
2017-10-01T02:39:11.907Z,9.48
2017-10-01T02:39:52.448Z,9.4
2017-10-01T02:40:32.981Z,9.48
2017-10-01T02:41:13.514Z,9.47
2017-10-01T02:41:54.044Z,9.4
2017-10-01T02:42:34.561Z,9.46
2017-10-01T02:43:15.093Z,9.42
2017-10-01T02:43:55.656Z,9.39
2017-10-01T02:44:36.155Z,9.39
2017-10-01T02:45:16.692Z,9.38
2017-10-01T02:45:57.232Z,9.46
2017-10-01T02:46:37.766Z,9.5
2017-10-01T02:47:18.289Z,9.46
2017-10-01T02:47:58.836Z,9.38
2017-10-01T02:48:39.345Z,9.43
2017-10-01T02:49:19.877Z,9.38
2017-10-01T02:50:00.398Z,9.39
2017-10-01T02:50:40.905Z,9.38
2017-10-01T02:51:21.418Z,9.47
2017-10-01T02:52:01.953Z,9.39
2017-10-01T02:52:42.474Z,9.42
2017-10-01T02:53:22.989Z,9.42
2017-10-01T02:54:03.512Z,9.38
2017-10-01T02:54:44.055Z,9.38
2017-10-01T02:55:24.592Z,9.33
2017-10-01T02:56:05.124Z,9.35
2017-10-01T02:56:45.656Z,9.33
2017-10-01T02:57:26.203Z,9.32
2017-10-01T02:58:06.731Z,9.36
2017-10-01T02:58:47.262Z,9.32
2017-10-01T02:59:27.775Z,9.26
2017-10-01T03:00:08.302Z,9.32
2017-10-01T03:00:48.828Z,9.35
2017-10-01T03:01:29.352Z,9.31
2017-10-01T03:02:09.880Z,9.29
2017-10-01T03:02:50.425Z,9.35
2017-10-01T03:03:30.930Z,9.32
2017-10-01T03:04:11.453Z,9.35
2017-10-01T03:04:51.975Z,9.32
2017-10-01T03:05:32.496Z,9.33
2017-10-01T03:06:13.033Z,9.26
2017-10-01T03:06:53.555Z,9.31
2017-10-01T03:07:34.083Z,9.43
2017-10-01T03:08:14.617Z,9.4
2017-10-01T03:08:55.136Z,9.36
2017-10-01T03:09:35.678Z,9.46
2017-10-01T03:10:16.192Z,9.42
2017-10-01T03:10:56.714Z,9.38
2017-10-01T03:11:37.260Z,9.43
2017-10-01T03:12:17.888Z,9.47
2017-10-01T03:12:58.420Z,9.47
2017-10-01T03:13:38.941Z,9.47
2017-10-01T03:14:19.469Z,9.48
2017-10-01T03:15:00.008Z,9.51
2017-10-01T03:15:40.529Z,9.46
2017-10-01T03:16:21.050Z,9.51
2017-10-01T03:17:01.579Z,9.51
2017-10-01T03:17:42.111Z,9.54
2017-10-01T03:18:22.623Z,9.46
2017-10-01T03:19:03.141Z,9.51
2017-10-01T03:19:43.666Z,9.54
2017-10-01T03:20:24.193Z,9.48
2017-10-01T03:21:04.717Z,9.54
2017-10-01T03:21:45.249Z,9.51
2017-10-01T03:22:25.772Z,9.53
2017-10-01T03:23:06.308Z,9.5
2017-10-01T03:23:46.850Z,9.54
2017-10-01T03:24:27.377Z,9.51
2017-10-01T03:25:07.902Z,9.51
2017-10-01T03:25:48.430Z,9.53
2017-10-01T03:26:28.956Z,9.47
2017-10-01T03:27:09.497Z,9.43
2017-10-01T03:27:50.058Z,9.4
2017-10-01T03:28:30.591Z,9.35
2017-10-01T03:29:11.084Z,9.48
2017-10-01T03:29:51.627Z,9.42
2017-10-01T03:30:32.165Z,9.42
2017-10-01T03:31:12.682Z,9.38
2017-10-01T03:31:53.203Z,9.32
2017-10-01T03:32:33.725Z,9.31
2017-10-01T03:33:14.253Z,9.31
2017-10-01T03:33:54.786Z,9.29
2017-10-01T03:34:35.299Z,9.31
2017-10-01T03:35:15.828Z,9.32
2017-10-01T03:35:56.356Z,9.31
2017-10-01T03:36:36.889Z,9.23
2017-10-01T03:37:17.420Z,9.21
2017-10-01T03:37:57.928Z,9.24
2017-10-01T03:38:38.451Z,9.21
2017-10-01T03:39:18.971Z,9.24
2017-10-01T03:39:59.485Z,9.2
2017-10-01T03:40:40.001Z,9.23
2017-10-01T03:41:20.521Z,9.26
2017-10-01T03:42:01.088Z,9.21
2017-10-01T03:42:41.599Z,9.18
2017-10-01T03:43:22.161Z,9.15
2017-10-01T03:44:02.693Z,9.13
2017-10-01T03:44:43.231Z,9.02
2017-10-01T03:45:23.764Z,9.02
2017-10-01T03:46:04.288Z,9.05
2017-10-01T03:46:44.803Z,8.99
2017-10-01T03:47:25.365Z,9.05
2017-10-01T03:48:05.883Z,9.05
2017-10-01T03:48:46.431Z,9.01
2017-10-01T03:49:26.955Z,9.02
2017-10-01T03:50:07.477Z,9.02
2017-10-01T03:50:47.993Z,9.05
2017-10-01T03:51:28.525Z,8.92
2017-10-01T03:52:09.057Z,8.92
2017-10-01T03:52:49.590Z,8.92
2017-10-01T03:53:30.117Z,8.86
2017-10-01T03:54:10.627Z,8.92
2017-10-01T03:54:51.158Z,8.96
2017-10-01T03:55:31.695Z,8.91
2017-10-01T03:56:12.185Z,8.86
2017-10-01T03:56:52.722Z,8.92
2017-10-01T03:57:33.265Z,8.83
2017-10-01T03:58:13.801Z,8.76
2017-10-01T03:58:54.343Z,8.83
2017-10-01T03:59:34.876Z,8.77
2017-10-01T04:00:15.390Z,8.83
2017-10-01T04:00:55.933Z,8.76
2017-10-01T04:01:36.451Z,8.77
2017-10-01T04:02:16.993Z,8.71
2017-10-01T04:02:57.521Z,8.76
2017-10-01T04:03:38.058Z,8.84
2017-10-01T04:04:18.592Z,8.77
2017-10-01T04:04:59.125Z,8.79
2017-10-01T04:05:39.651Z,8.79
2017-10-01T04:06:20.176Z,8.74
2017-10-01T04:07:00.696Z,8.76
2017-10-01T04:07:41.238Z,8.73
2017-10-01T04:08:21.756Z,8.74
2017-10-01T04:09:02.297Z,8.79
2017-10-01T04:09:42.815Z,8.71
2017-10-01T04:10:23.343Z,8.77
2017-10-01T04:11:03.862Z,8.8
2017-10-01T04:11:44.398Z,8.71
2017-10-01T04:12:24.905Z,8.68
2017-10-01T04:13:05.435Z,8.74
2017-10-01T04:13:45.977Z,8.71
2017-10-01T04:14:26.507Z,8.7
2017-10-01T04:15:07.057Z,8.68
2017-10-01T04:15:47.570Z,8.74
2017-10-01T04:16:28.114Z,8.76
2017-10-01T04:17:08.639Z,8.71
2017-10-01T04:17:49.166Z,8.73
2017-10-01T04:18:29.694Z,8.65
2017-10-01T04:19:10.266Z,8.71
2017-10-01T04:19:50.800Z,8.71
2017-10-01T04:20:31.319Z,8.74
2017-10-01T04:21:11.868Z,8.74
2017-10-01T04:21:52.407Z,8.76
2017-10-01T04:22:32.934Z,8.71
2017-10-01T04:23:13.450Z,8.81
2017-10-01T04:23:53.954Z,8.63
2017-10-01T04:24:34.469Z,8.79
2017-10-01T04:25:15.001Z,8.74
2017-10-01T04:25:55.526Z,8.71
2017-10-01T04:26:36.061Z,8.71
2017-10-01T04:27:16.591Z,8.7
2017-10-01T04:27:57.110Z,8.7
2017-10-01T04:28:37.632Z,8.74
2017-10-01T04:29:18.176Z,8.73
2017-10-01T04:29:58.708Z,8.74
2017-10-01T04:30:39.261Z,8.7
2017-10-01T04:31:19.794Z,8.8
2017-10-01T04:32:00.309Z,8.71
2017-10-01T04:32:40.827Z,8.71
2017-10-01T04:33:21.365Z,8.84
2017-10-01T04:34:01.879Z,8.79
2017-10-01T04:34:42.416Z,8.73
2017-10-01T04:35:22.932Z,8.79
2017-10-01T04:36:03.458Z,8.77
2017-10-01T04:36:43.988Z,8.76
2017-10-01T04:37:24.516Z,8.74
2017-10-01T04:38:05.037Z,8.76
2017-10-01T04:38:45.571Z,8.74
2017-10-01T04:39:26.101Z,8.77
2017-10-01T04:40:06.632Z,8.77
2017-10-01T04:40:47.149Z,8.71
2017-10-01T04:41:27.675Z,8.73
2017-10-01T04:42:08.217Z,8.8
2017-10-01T04:42:48.766Z,8.79
2017-10-01T04:43:29.270Z,8.81
2017-10-01T04:44:09.813Z,8.81
2017-10-01T04:44:50.316Z,8.81
2017-10-01T04:45:30.842Z,8.74
2017-10-01T04:46:11.371Z,8.68
2017-10-01T04:46:51.909Z,8.84
2017-10-01T04:47:32.442Z,8.81
2017-10-01T04:48:13.096Z,8.8
2017-10-01T04:48:53.618Z,8.81
2017-10-01T04:49:34.136Z,8.76
2017-10-01T04:50:14.675Z,8.81
2017-10-01T04:50:55.205Z,8.77
2017-10-01T04:51:35.729Z,8.77
2017-10-01T04:52:16.248Z,8.79
2017-10-01T04:52:56.767Z,8.76
2017-10-01T04:53:37.301Z,8.73
2017-10-01T04:54:17.823Z,8.68
2017-10-01T04:54:58.347Z,8.83
2017-10-01T04:55:38.887Z,8.79
2017-10-01T04:56:19.414Z,8.73
2017-10-01T04:56:59.950Z,8.71
2017-10-01T04:57:40.483Z,8.71
2017-10-01T04:58:20.998Z,8.7
2017-10-01T04:59:01.515Z,8.71
2017-10-01T04:59:42.046Z,8.71
2017-10-01T05:00:22.575Z,8.74
2017-10-01T05:01:03.136Z,8.74
2017-10-01T05:01:43.658Z,8.71
2017-10-01T05:02:24.179Z,8.73
2017-10-01T05:03:04.707Z,8.79
2017-10-01T05:03:45.233Z,8.71
2017-10-01T05:04:25.751Z,8.76
2017-10-01T05:05:06.282Z,8.74
2017-10-01T05:05:46.803Z,8.71
2017-10-01T05:06:27.347Z,8.63
2017-10-01T05:07:07.865Z,8.79
2017-10-01T05:07:48.398Z,8.7
2017-10-01T05:08:28.919Z,8.73
2017-10-01T05:09:09.443Z,8.68
2017-10-01T05:09:49.971Z,8.71
2017-10-01T05:10:30.506Z,8.73
2017-10-01T05:11:11.033Z,8.63
2017-10-01T05:11:51.532Z,8.71
2017-10-01T05:12:32.167Z,8.71
2017-10-01T05:13:12.703Z,8.71
2017-10-01T05:13:53.226Z,8.68
2017-10-01T05:14:33.757Z,8.65
2017-10-01T05:15:14.287Z,8.66
2017-10-01T05:15:54.829Z,8.61
2017-10-01T05:16:35.372Z,8.74
2017-10-01T05:17:15.900Z,8.7
2017-10-01T05:17:56.442Z,8.63
2017-10-01T05:18:36.978Z,8.58
2017-10-01T05:19:17.502Z,8.74
2017-10-01T05:19:58.036Z,8.59
2017-10-01T05:20:38.571Z,8.59
2017-10-01T05:21:19.161Z,8.58
2017-10-01T05:21:59.698Z,8.59
2017-10-01T05:22:40.234Z,8.59
2017-10-01T05:23:20.763Z,8.56
2017-10-01T05:24:01.270Z,8.53
2017-10-01T05:24:41.797Z,8.61
2017-10-01T05:25:22.370Z,8.53
2017-10-01T05:26:02.925Z,8.5
2017-10-01T05:26:43.454Z,8.56
2017-10-01T05:27:23.973Z,8.56
2017-10-01T05:28:04.507Z,8.58
2017-10-01T05:28:45.165Z,8.47
2017-10-01T05:29:25.692Z,8.58
2017-10-01T05:30:06.214Z,8.55
2017-10-01T05:30:46.738Z,8.55
2017-10-01T05:31:27.254Z,8.56
2017-10-01T05:32:07.775Z,8.55
2017-10-01T05:32:48.352Z,8.55
2017-10-01T05:33:28.927Z,8.55
2017-10-01T05:34:09.409Z,8.5
2017-10-01T05:34:49.939Z,8.5
2017-10-01T05:35:30.470Z,8.53
2017-10-01T05:36:11.008Z,8.58
2017-10-01T05:36:51.530Z,8.55
2017-10-01T05:37:32.113Z,8.55
2017-10-01T05:38:12.673Z,8.56
2017-10-01T05:38:53.196Z,8.47
2017-10-01T05:39:33.771Z,8.53
2017-10-01T05:40:14.277Z,8.58
2017-10-01T05:40:54.810Z,8.58
2017-10-01T05:41:35.328Z,8.5
2017-10-01T05:42:15.867Z,8.5
2017-10-01T05:42:56.396Z,8.5
2017-10-01T05:43:36.893Z,8.43
2017-10-01T05:44:17.441Z,8.45
2017-10-01T05:44:57.969Z,8.47
2017-10-01T05:45:38.487Z,8.56
2017-10-01T05:46:19.134Z,8.52
2017-10-01T05:46:59.655Z,8.47
2017-10-01T05:47:40.195Z,8.48
2017-10-01T05:48:20.789Z,8.55
2017-10-01T05:49:01.435Z,8.47
2017-10-01T05:49:42.238Z,8.5
2017-10-01T05:50:22.754Z,8.43
2017-10-01T05:51:03.277Z,8.5
2017-10-01T05:51:43.796Z,8.5
2017-10-01T05:52:24.324Z,8.52
2017-10-01T05:53:04.859Z,8.47
2017-10-01T05:53:45.404Z,8.53
2017-10-01T05:54:25.912Z,8.5
2017-10-01T05:55:06.434Z,8.45
2017-10-01T05:55:46.943Z,8.52
2017-10-01T05:56:27.492Z,8.47
2017-10-01T05:57:08.028Z,8.53
2017-10-01T05:57:48.553Z,8.53
2017-10-01T05:58:29.086Z,8.48
2017-10-01T05:59:09.600Z,8.48
2017-10-01T05:59:50.151Z,8.48
2017-10-01T06:00:30.734Z,8.53
2017-10-01T06:01:11.257Z,8.48
2017-10-01T06:01:51.794Z,8.58
2017-10-01T06:02:32.316Z,8.52
2017-10-01T06:03:12.868Z,8.52
2017-10-01T06:05:27.255Z,8.58
2017-10-01T06:06:07.752Z,8.53
2017-10-01T06:06:48.270Z,8.53
2017-10-01T06:07:28.932Z,8.55
2017-10-01T06:08:09.483Z,8.52
2017-10-01T06:08:50.216Z,8.53
2017-10-01T06:09:30.724Z,8.58
2017-10-01T06:10:11.375Z,8.55
2017-10-01T06:10:51.841Z,8.5
2017-10-01T06:11:32.375Z,8.59
2017-10-01T06:12:12.928Z,8.53
2017-10-01T06:12:53.471Z,8.53
2017-10-01T06:13:33.994Z,8.58
2017-10-01T06:14:14.612Z,8.52
2017-10-01T06:14:55.123Z,8.55
2017-10-01T06:15:35.739Z,8.55
2017-10-01T06:16:16.270Z,8.53
2017-10-01T06:16:56.848Z,8.58
2017-10-01T06:17:37.422Z,8.58
2017-10-01T06:18:18.052Z,8.63
2017-10-01T06:18:58.512Z,8.5
2017-10-01T06:19:39.017Z,8.56
2017-10-01T06:20:19.540Z,8.65
2017-10-01T06:21:00.041Z,8.61
2017-10-01T06:21:40.545Z,8.58
2017-10-01T06:22:21.056Z,8.68
2017-10-01T06:23:01.560Z,8.73
2017-10-01T06:23:42.056Z,8.66
2017-10-01T06:24:23.118Z,8.65
2017-10-01T06:25:03.628Z,8.62
2017-10-01T06:25:44.321Z,8.66
2017-10-01T06:26:24.741Z,8.66
2017-10-01T06:27:05.260Z,8.68
2017-10-01T06:27:45.884Z,8.65
2017-10-01T06:28:26.386Z,8.71
2017-10-01T06:29:06.904Z,8.7
2017-10-01T06:29:47.419Z,8.68
2017-10-01T06:30:27.918Z,8.74
2017-10-01T06:31:08.439Z,8.76
2017-10-01T06:31:48.955Z,8.79
2017-10-01T06:32:29.478Z,8.77
2017-10-01T06:33:10.002Z,8.79
2017-10-01T06:33:50.549Z,8.66
2017-10-01T06:34:31.054Z,8.77
2017-10-01T06:35:11.561Z,8.77
2017-10-01T06:35:52.057Z,8.77
2017-10-01T06:36:32.558Z,8.89
2017-10-01T06:37:13.068Z,8.79
2017-10-01T06:37:53.603Z,8.81
2017-10-01T06:38:34.106Z,8.8
2017-10-01T06:39:14.608Z,8.76
2017-10-01T06:39:55.131Z,8.89
2017-10-01T06:40:35.627Z,8.77
2017-10-01T06:41:16.197Z,8.84
2017-10-01T06:41:57.470Z,8.87
2017-10-01T06:42:38.062Z,8.89
2017-10-01T06:43:18.939Z,8.89
2017-10-01T06:43:59.642Z,8.94
2017-10-01T06:44:40.446Z,8.94
2017-10-01T06:45:21.106Z,8.96
2017-10-01T06:46:01.829Z,8.91
2017-10-01T06:46:42.407Z,8.89
2017-10-01T06:47:23.220Z,8.92
2017-10-01T06:48:03.949Z,9.02
2017-10-01T06:48:44.921Z,9.04
2017-10-01T06:49:25.585Z,9.05
2017-10-01T06:50:06.174Z,9.08
2017-10-01T06:50:46.960Z,9.11
2017-10-01T06:51:27.998Z,9.04
2017-10-01T06:52:08.895Z,9.01
2017-10-01T06:52:49.713Z,9.02
2017-10-01T06:53:30.508Z,9.02
2017-10-01T06:54:11.016Z,9.05
2017-10-01T06:54:51.532Z,9.11
2017-10-01T06:55:32.061Z,9.01
2017-10-01T06:56:12.601Z,9.01
2017-10-01T06:56:53.101Z,9.14
2017-10-01T06:57:33.611Z,9.13
2017-10-01T06:58:14.159Z,9.15
2017-10-01T06:58:54.628Z,9.21
2017-10-01T06:59:35.126Z,9.17
2017-10-01T07:00:15.669Z,9.2
2017-10-01T07:00:56.176Z,9.2
2017-10-01T07:01:36.721Z,9.24
2017-10-01T07:02:17.242Z,9.24
2017-10-01T07:02:57.771Z,9.21
2017-10-01T07:03:38.291Z,9.21
2017-10-01T07:04:18.780Z,9.28
2017-10-01T07:04:59.283Z,9.28
2017-10-01T07:05:39.813Z,9.35
2017-10-01T07:06:20.335Z,9.35
2017-10-01T07:07:00.841Z,9.29
2017-10-01T07:07:41.367Z,9.32
2017-10-01T07:08:21.925Z,9.33
2017-10-01T07:09:02.400Z,9.36
2017-10-01T07:09:42.912Z,9.32
2017-10-01T07:10:23.422Z,9.32
2017-10-01T07:11:03.985Z,9.43
2017-10-01T07:11:44.513Z,9.39
2017-10-01T07:12:25.020Z,9.46
2017-10-01T07:13:05.530Z,9.43
2017-10-01T07:13:46.050Z,9.46
2017-10-01T07:14:26.542Z,9.39
2017-10-01T07:15:07.080Z,9.42
2017-10-01T07:15:47.611Z,9.47
2017-10-01T07:16:28.158Z,9.48
2017-10-01T07:17:08.674Z,9.53
2017-10-01T07:17:49.168Z,9.5
2017-10-01T07:18:29.689Z,9.57
2017-10-01T07:19:10.217Z,9.51
2017-10-01T07:19:50.727Z,9.57
2017-10-01T07:20:31.299Z,9.6
2017-10-01T07:21:11.788Z,9.58
2017-10-01T07:21:52.313Z,9.64
2017-10-01T07:22:32.830Z,9.64
2017-10-01T07:23:13.314Z,9.69
2017-10-01T07:23:53.833Z,9.68
2017-10-01T07:24:34.378Z,9.65
2017-10-01T07:25:14.872Z,9.64
2017-10-01T07:25:55.394Z,9.74
2017-10-01T07:26:35.890Z,9.75
2017-10-01T07:27:16.412Z,9.78
2017-10-01T07:27:56.939Z,9.75
2017-10-01T07:28:37.458Z,9.76
2017-10-01T07:29:17.984Z,9.86
2017-10-01T07:29:58.523Z,9.79
2017-10-01T07:30:39.039Z,9.76
2017-10-01T07:31:19.605Z,9.81
2017-10-01T07:32:00.108Z,9.86
2017-10-01T07:32:40.636Z,9.9
2017-10-01T07:33:21.176Z,9.94
2017-10-01T07:34:01.800Z,9.9
2017-10-01T07:34:42.284Z,9.89
2017-10-01T07:35:22.818Z,9.89
2017-10-01T07:36:03.322Z,9.96
2017-10-01T07:38:17.529Z,9.99
2017-10-01T07:38:58.057Z,10.04
2017-10-01T07:39:38.561Z,10.02
2017-10-01T07:40:19.119Z,10.08
2017-10-01T07:40:59.630Z,10.04
2017-10-01T07:41:40.161Z,10.08
2017-10-01T07:42:20.683Z,10.08
2017-10-01T07:43:01.219Z,10.14
2017-10-01T07:43:41.788Z,10.11
2017-10-01T07:44:22.257Z,10.2
2017-10-01T07:45:02.792Z,10.14
2017-10-01T07:45:43.322Z,10.2
2017-10-01T07:46:23.840Z,10.23
2017-10-01T07:47:04.361Z,10.23
2017-10-01T07:47:44.865Z,10.26
2017-10-01T07:48:25.392Z,10.29
2017-10-01T07:49:05.969Z,10.26
2017-10-01T07:49:46.494Z,10.33
2017-10-01T07:50:27.010Z,10.27
2017-10-01T07:51:07.536Z,10.27
2017-10-01T07:51:48.063Z,10.41
2017-10-01T07:52:28.593Z,10.33
2017-10-01T07:53:09.121Z,10.38
2017-10-01T07:53:49.652Z,10.41
2017-10-01T07:54:30.177Z,10.42
2017-10-01T07:55:10.724Z,10.44
2017-10-01T07:55:51.228Z,10.47
2017-10-01T07:56:31.753Z,10.59
2017-10-01T07:57:12.353Z,10.53
2017-10-01T07:57:52.902Z,10.66
2017-10-01T07:58:33.414Z,10.61
2017-10-01T07:59:13.966Z,10.67
2017-10-01T07:59:54.645Z,10.67
2017-10-01T08:00:35.065Z,10.68
2017-10-01T08:01:15.596Z,10.73
2017-10-01T08:01:56.979Z,10.74
2017-10-01T08:02:37.733Z,10.74
2017-10-01T08:03:18.220Z,10.78
2017-10-01T08:03:58.759Z,10.78
2017-10-01T08:04:39.274Z,10.82
2017-10-01T08:05:19.802Z,10.86
2017-10-01T08:06:00.340Z,10.84
2017-10-01T08:06:40.879Z,10.82
2017-10-01T08:07:22.964Z,10.92
2017-10-01T08:08:03.497Z,10.89
2017-10-01T08:08:44.030Z,10.94
2017-10-01T08:09:24.561Z,10.97
2017-10-01T08:10:05.491Z,10.94
2017-10-01T08:10:46.012Z,11
2017-10-01T08:11:26.546Z,11.06
2017-10-01T08:12:07.159Z,11.09
2017-10-01T08:12:47.681Z,11.09
2017-10-01T08:13:28.209Z,11.09
2017-10-01T08:14:08.722Z,11.14
2017-10-01T08:14:49.210Z,11.14
2017-10-01T08:15:29.730Z,11.15
2017-10-01T08:16:10.278Z,11.22
2017-10-01T08:16:50.786Z,11.27
2017-10-01T08:17:31.437Z,11.25
2017-10-01T08:18:12.532Z,11.29
2017-10-01T08:18:53.097Z,11.32
2017-10-01T08:19:33.623Z,11.39
2017-10-01T08:20:14.149Z,11.32
2017-10-01T08:20:54.679Z,11.36
2017-10-01T08:21:35.159Z,11.4
2017-10-01T08:22:15.735Z,11.36
2017-10-01T08:22:56.333Z,11.58
2017-10-01T08:23:36.958Z,11.51
2017-10-01T08:24:17.417Z,11.49
2017-10-01T08:24:58.138Z,11.52
2017-10-01T08:25:38.765Z,11.62
2017-10-01T08:26:19.315Z,11.65
2017-10-01T08:26:59.878Z,11.55
2017-10-01T08:27:40.606Z,11.7
2017-10-01T08:28:22.910Z,11.69
2017-10-01T08:29:03.474Z,11.67
2017-10-01T08:29:45.723Z,11.69
2017-10-01T08:30:26.216Z,11.7
2017-10-01T08:31:06.756Z,11.73
2017-10-01T08:31:47.259Z,11.79
2017-10-01T08:32:27.772Z,11.79
2017-10-01T08:33:08.320Z,11.76
2017-10-01T08:33:50.741Z,11.73
2017-10-01T08:34:31.229Z,11.85
2017-10-01T08:35:11.795Z,11.86
2017-10-01T08:35:52.281Z,11.94
2017-10-01T08:36:32.814Z,11.94
2017-10-01T08:37:13.327Z,12.04
2017-10-01T08:37:53.864Z,12.04
2017-10-01T08:38:34.362Z,12.13
2017-10-01T08:39:14.893Z,11.99
2017-10-01T08:39:55.416Z,12.09
2017-10-01T08:40:35.969Z,12.17
2017-10-01T08:41:16.489Z,12.19
2017-10-01T08:41:57.037Z,12.24
2017-10-01T08:42:37.589Z,12.34
2017-10-01T08:43:18.105Z,12.28
2017-10-01T08:43:58.660Z,12.31
2017-10-01T08:44:39.271Z,12.37
2017-10-01T08:45:23.628Z,12.39
2017-10-01T08:46:05.673Z,12.49
2017-10-01T08:46:46.178Z,12.65
2017-10-01T08:47:26.766Z,12.7
2017-10-01T08:48:07.325Z,12.79
2017-10-01T08:48:47.868Z,12.89
2017-10-01T08:49:28.391Z,12.95
2017-10-01T08:50:08.957Z,13.04
2017-10-01T08:50:49.464Z,13.11
2017-10-01T08:51:30.320Z,13.25
2017-10-01T08:52:10.853Z,13.25
2017-10-01T08:52:51.385Z,13.3
2017-10-01T08:53:31.885Z,13.45
2017-10-01T08:54:12.426Z,13.51
2017-10-01T08:54:52.953Z,13.64
2017-10-01T08:55:33.493Z,13.82
2017-10-01T08:56:13.999Z,13.88
2017-10-01T08:56:54.514Z,14.02
2017-10-01T08:57:35.126Z,14.21
2017-10-01T08:58:15.696Z,14.4
2017-10-01T08:58:56.201Z,14.61
2017-10-01T08:59:37.243Z,14.77
2017-10-01T09:00:19.517Z,14.95
2017-10-01T09:01:00.052Z,15.07